sensor_id;sensor_type;location;lat;lon;timestamp;temperature;humidity
25991;DHT22;13779;-33.886;151.198;2023-02-16T00:03:45;24.30;99.90
25991;DHT22;13779;-33.886;151.198;2023-02-16T00:06:15;24.30;99.90
25991;DHT22;13779;-33.886;151.198;2023-02-16T00:08:47;24.30;99.90
25991;DHT22;13779;-33.886;151.198;2023-02-16T00:11:29;24.30;99.90
25991;DHT22;13779;-33.886;151.198;2023-02-16T00:14:19;24.30;99.90
25991;DHT22;13779;-33.886;151.198;2023-02-16T00:16:56;24.30;99.90
25991;DHT22;13779;-33.886;151.198;2023-02-16T00:22:06;24.40;99.90
25991;DHT22;13779;-33.886;151.198;2023-02-16T00:24:36;24.50;99.90
25991;DHT22;13779;-33.886;151.198;2023-02-16T00:27:15;24.60;99.90
25991;DHT22;13779;-33.886;151.198;2023-02-16T00:29:47;24.60;99.90
25991;DHT22;13779;-33.886;151.198;2023-02-16T00:32:17;24.60;99.90
25991;DHT22;13779;-33.886;151.198;2023-02-16T00:34:47;24.70;99.90
25991;DHT22;13779;-33.886;151.198;2023-02-16T00:37:17;24.60;99.90
25991;DHT22;13779;-33.886;151.198;2023-02-16T00:39:48;24.60;99.90
25991;DHT22;13779;-33.886;151.198;2023-02-16T00:42:21;24.60;99.90
25991;DHT22;13779;-33.886;151.198;2023-02-16T00:44:54;24.70;99.90
25991;DHT22;13779;-33.886;151.198;2023-02-16T00:47:35;24.80;99.90
25991;DHT22;13779;-33.886;151.198;2023-02-16T00:50:31;24.90;99.90
25991;DHT22;13779;-33.886;151.198;2023-02-16T00:53:02;24.90;99.90
25991;DHT22;13779;-33.886;151.198;2023-02-16T00:55:34;25.00;99.90
25991;DHT22;13779;-33.886;151.198;2023-02-16T01:00:54;25.20;99.90
25991;DHT22;13779;-33.886;151.198;2023-02-16T01:03:28;25.20;99.90
25991;DHT22;13779;-33.886;151.198;2023-02-16T01:05:58;25.20;99.90
25991;DHT22;13779;-33.886;151.198;2023-02-16T01:08:47;25.10;99.90
25991;DHT22;13779;-33.886;151.198;2023-02-16T01:11:38;25.00;99.90
25991;DHT22;13779;-33.886;151.198;2023-02-16T01:14:12;24.90;99.90
25991;DHT22;13779;-33.886;151.198;2023-02-16T01:16:42;25.00;99.90
25991;DHT22;13779;-33.886;151.198;2023-02-16T01:19:13;25.10;99.90
25991;DHT22;13779;-33.886;151.198;2023-02-16T01:21:47;25.20;99.90
25991;DHT22;13779;-33.886;151.198;2023-02-16T01:24:17;25.30;99.90
25991;DHT22;13779;-33.886;151.198;2023-02-16T01:26:49;25.20;99.90
25991;DHT22;13779;-33.886;151.198;2023-02-16T01:29:21;25.10;99.90
25991;DHT22;13779;-33.886;151.198;2023-02-16T01:31:51;25.20;99.90
25991;DHT22;13779;-33.886;151.198;2023-02-16T01:34:25;25.30;99.90
25991;DHT22;13779;-33.886;151.198;2023-02-16T01:36:55;25.30;99.90
25991;DHT22;13779;-33.886;151.198;2023-02-16T01:39:27;25.40;99.90
25991;DHT22;13779;-33.886;151.198;2023-02-16T01:42:18;25.50;99.90
25991;DHT22;13779;-33.886;151.198;2023-02-16T01:45:01;25.50;99.90
25991;DHT22;13779;-33.886;151.198;2023-02-16T01:47:51;25.50;99.90
25991;DHT22;13779;-33.886;151.198;2023-02-16T01:50:26;25.50;99.90
25991;DHT22;13779;-33.886;151.198;2023-02-16T01:53:18;25.60;99.90
25991;DHT22;13779;-33.886;151.198;2023-02-16T01:55:56;25.60;99.90
25991;DHT22;13779;-33.886;151.198;2023-02-16T01:58:44;25.50;99.90
25991;DHT22;13779;-33.886;151.198;2023-02-16T02:07:34;25.10;99.90
25991;DHT22;13779;-33.886;151.198;2023-02-16T02:15:58;25.10;99.90
25991;DHT22;13779;-33.886;151.198;2023-02-16T02:18:29;25.10;99.90
25991;DHT22;13779;-33.886;151.198;2023-02-16T02:35:35;25.20;99.90
25991;DHT22;13779;-33.886;151.198;2023-02-16T02:46:32;25.30;99.90
25991;DHT22;13779;-33.886;151.198;2023-02-16T02:49:06;25.40;99.90
25991;DHT22;13779;-33.886;151.198;2023-02-16T02:51:40;25.50;99.90
25991;DHT22;13779;-33.886;151.198;2023-02-16T02:57:17;25.60;99.90
25991;DHT22;13779;-33.886;151.198;2023-02-16T03:00:20;25.60;99.90
25991;DHT22;13779;-33.886;151.198;2023-02-16T03:03:25;25.60;99.90
25991;DHT22;13779;-33.886;151.198;2023-02-16T03:08:33;25.70;99.90
25991;DHT22;13779;-33.886;151.198;2023-02-16T03:11:23;25.70;99.90
25991;DHT22;13779;-33.886;151.198;2023-02-16T03:14:39;25.80;99.90
25991;DHT22;13779;-33.886;151.198;2023-02-16T03:17:14;25.90;99.90
25991;DHT22;13779;-33.886;151.198;2023-02-16T03:20:06;25.90;99.90
25991;DHT22;13779;-33.886;151.198;2023-02-16T03:22:56;26.00;99.90
25991;DHT22;13779;-33.886;151.198;2023-02-16T03:25:45;26.10;99.90
25991;DHT22;13779;-33.886;151.198;2023-02-16T03:28:34;26.10;99.90
25991;DHT22;13779;-33.886;151.198;2023-02-16T03:31:29;26.20;99.90
25991;DHT22;13779;-33.886;151.198;2023-02-16T03:34:00;26.30;99.90
25991;DHT22;13779;-33.886;151.198;2023-02-16T03:36:33;26.30;99.90
25991;DHT22;13779;-33.886;151.198;2023-02-16T03:39:05;26.30;99.90
25991;DHT22;13779;-33.886;151.198;2023-02-16T03:41:44;26.20;99.90
25991;DHT22;13779;-33.886;151.198;2023-02-16T03:44:16;26.20;99.90
25991;DHT22;13779;-33.886;151.198;2023-02-16T03:46:48;26.10;99.90
25991;DHT22;13779;-33.886;151.198;2023-02-16T03:49:19;26.10;99.90
25991;DHT22;13779;-33.886;151.198;2023-02-16T03:51:49;26.00;99.90
25991;DHT22;13779;-33.886;151.198;2023-02-16T03:54:20;26.00;99.90
25991;DHT22;13779;-33.886;151.198;2023-02-16T03:56:53;26.00;99.90
25991;DHT22;13779;-33.886;151.198;2023-02-16T03:59:24;26.00;99.90
25991;DHT22;13779;-33.886;151.198;2023-02-16T04:01:54;25.90;99.90
25991;DHT22;13779;-33.886;151.198;2023-02-16T04:04:25;26.00;99.90
25991;DHT22;13779;-33.886;151.198;2023-02-16T04:06:55;26.10;99.90
25991;DHT22;13779;-33.886;151.198;2023-02-16T04:09:29;26.00;99.90
25991;DHT22;13779;-33.886;151.198;2023-02-16T04:11:59;26.00;99.90
25991;DHT22;13779;-33.886;151.198;2023-02-16T04:14:48;25.90;99.90
25991;DHT22;13779;-33.886;151.198;2023-02-16T04:17:18;26.00;99.90
25991;DHT22;13779;-33.886;151.198;2023-02-16T04:19:48;25.90;99.90
25991;DHT22;13779;-33.886;151.198;2023-02-16T04:22:19;25.80;99.90
25991;DHT22;13779;-33.886;151.198;2023-02-16T04:24:50;25.90;99.90
25991;DHT22;13779;-33.886;151.198;2023-02-16T04:27:21;25.90;99.90
25991;DHT22;13779;-33.886;151.198;2023-02-16T04:29:52;26.00;99.90
25991;DHT22;13779;-33.886;151.198;2023-02-16T04:32:26;26.10;99.90
25991;DHT22;13779;-33.886;151.198;2023-02-16T04:34:57;25.90;99.90
25991;DHT22;13779;-33.886;151.198;2023-02-16T04:37:29;26.00;99.90
25991;DHT22;13779;-33.886;151.198;2023-02-16T04:39:59;26.00;99.90
25991;DHT22;13779;-33.886;151.198;2023-02-16T04:42:30;26.10;99.90
25991;DHT22;13779;-33.886;151.198;2023-02-16T04:45:01;26.00;99.90
25991;DHT22;13779;-33.886;151.198;2023-02-16T04:47:31;26.00;99.90
25991;DHT22;13779;-33.886;151.198;2023-02-16T04:50:03;26.00;99.90
25991;DHT22;13779;-33.886;151.198;2023-02-16T04:52:33;26.10;99.90
25991;DHT22;13779;-33.886;151.198;2023-02-16T04:55:06;26.10;99.90
25991;DHT22;13779;-33.886;151.198;2023-02-16T04:57:39;26.20;99.90
25991;DHT22;13779;-33.886;151.198;2023-02-16T05:00:09;26.20;99.90
25991;DHT22;13779;-33.886;151.198;2023-02-16T05:02:41;26.20;99.90
25991;DHT22;13779;-33.886;151.198;2023-02-16T05:05:11;26.30;99.90
25991;DHT22;13779;-33.886;151.198;2023-02-16T05:07:42;26.30;99.90
25991;DHT22;13779;-33.886;151.198;2023-02-16T05:10:12;26.30;99.90
25991;DHT22;13779;-33.886;151.198;2023-02-16T05:12:43;26.30;99.90
25991;DHT22;13779;-33.886;151.198;2023-02-16T05:15:32;26.30;99.90
25991;DHT22;13779;-33.886;151.198;2023-02-16T05:18:02;26.30;99.90
25991;DHT22;13779;-33.886;151.198;2023-02-16T05:20:33;26.20;99.90
25991;DHT22;13779;-33.886;151.198;2023-02-16T05:23:21;26.10;99.90
25991;DHT22;13779;-33.886;151.198;2023-02-16T05:25:52;26.10;99.90
25991;DHT22;13779;-33.886;151.198;2023-02-16T05:28:22;26.20;99.90
25991;DHT22;13779;-33.886;151.198;2023-02-16T05:30:56;26.40;99.90
25991;DHT22;13779;-33.886;151.198;2023-02-16T05:33:26;26.40;99.90
25991;DHT22;13779;-33.886;151.198;2023-02-16T05:35:57;26.40;99.90
25991;DHT22;13779;-33.886;151.198;2023-02-16T05:38:27;26.30;99.90
25991;DHT22;13779;-33.886;151.198;2023-02-16T05:41:01;26.30;99.90
25991;DHT22;13779;-33.886;151.198;2023-02-16T05:43:32;26.30;99.90
25991;DHT22;13779;-33.886;151.198;2023-02-16T05:46:09;26.30;99.90
25991;DHT22;13779;-33.886;151.198;2023-02-16T05:48:39;26.20;99.90
25991;DHT22;13779;-33.886;151.198;2023-02-16T05:51:09;26.10;99.90
25991;DHT22;13779;-33.886;151.198;2023-02-16T05:53:40;26.10;99.90
25991;DHT22;13779;-33.886;151.198;2023-02-16T05:56:10;26.00;99.90
25991;DHT22;13779;-33.886;151.198;2023-02-16T05:58:45;25.90;99.90
25991;DHT22;13779;-33.886;151.198;2023-02-16T06:01:16;25.90;99.90
25991;DHT22;13779;-33.886;151.198;2023-02-16T06:03:48;25.80;99.90
25991;DHT22;13779;-33.886;151.198;2023-02-16T06:06:18;25.80;99.90
25991;DHT22;13779;-33.886;151.198;2023-02-16T06:08:49;25.70;99.90
25991;DHT22;13779;-33.886;151.198;2023-02-16T06:11:19;25.60;99.90
25991;DHT22;13779;-33.886;151.198;2023-02-16T06:14:25;25.60;99.90
25991;DHT22;13779;-33.886;151.198;2023-02-16T06:16:54;25.60;99.90
25991;DHT22;13779;-33.886;151.198;2023-02-16T06:19:26;25.60;99.90
25991;DHT22;13779;-33.886;151.198;2023-02-16T06:21:56;25.60;99.90
25991;DHT22;13779;-33.886;151.198;2023-02-16T06:24:26;25.50;99.90
25991;DHT22;13779;-33.886;151.198;2023-02-16T06:26:56;25.50;99.90
25991;DHT22;13779;-33.886;151.198;2023-02-16T06:29:26;25.50;99.90
25991;DHT22;13779;-33.886;151.198;2023-02-16T06:31:57;25.40;99.90
25991;DHT22;13779;-33.886;151.198;2023-02-16T06:34:27;25.40;99.90
25991;DHT22;13779;-33.886;151.198;2023-02-16T06:36:58;25.40;99.90
25991;DHT22;13779;-33.886;151.198;2023-02-16T06:39:28;25.30;99.90
25991;DHT22;13779;-33.886;151.198;2023-02-16T06:41:59;25.30;99.90
25991;DHT22;13779;-33.886;151.198;2023-02-16T06:44:32;25.30;99.90
25991;DHT22;13779;-33.886;151.198;2023-02-16T06:47:06;25.20;99.90
25991;DHT22;13779;-33.886;151.198;2023-02-16T06:49:37;25.30;99.90
25991;DHT22;13779;-33.886;151.198;2023-02-16T06:52:07;25.20;99.90
25991;DHT22;13779;-33.886;151.198;2023-02-16T06:54:37;25.20;99.90
25991;DHT22;13779;-33.886;151.198;2023-02-16T06:57:08;25.10;99.90
25991;DHT22;13779;-33.886;151.198;2023-02-16T06:59:39;25.10;99.90
25991;DHT22;13779;-33.886;151.198;2023-02-16T07:02:09;25.10;99.90
25991;DHT22;13779;-33.886;151.198;2023-02-16T07:04:40;25.10;99.90
25991;DHT22;13779;-33.886;151.198;2023-02-16T07:07:11;25.10;99.90
25991;DHT22;13779;-33.886;151.198;2023-02-16T07:09:45;25.10;99.90
25991;DHT22;13779;-33.886;151.198;2023-02-16T07:12:18;25.00;99.90
25991;DHT22;13779;-33.886;151.198;2023-02-16T07:14:49;25.00;99.90
25991;DHT22;13779;-33.886;151.198;2023-02-16T07:17:20;25.00;99.90
25991;DHT22;13779;-33.886;151.198;2023-02-16T07:19:50;24.90;99.90
25991;DHT22;13779;-33.886;151.198;2023-02-16T07:22:20;24.90;99.90
25991;DHT22;13779;-33.886;151.198;2023-02-16T07:24:54;24.80;99.90
25991;DHT22;13779;-33.886;151.198;2023-02-16T07:27:26;24.90;99.90
25991;DHT22;13779;-33.886;151.198;2023-02-16T07:29:57;24.90;99.90
25991;DHT22;13779;-33.886;151.198;2023-02-16T07:32:29;24.80;99.90
25991;DHT22;13779;-33.886;151.198;2023-02-16T07:34:59;24.80;99.90
25991;DHT22;13779;-33.886;151.198;2023-02-16T07:37:30;24.80;99.90
25991;DHT22;13779;-33.886;151.198;2023-02-16T07:40:00;24.80;99.90
25991;DHT22;13779;-33.886;151.198;2023-02-16T07:42:32;24.70;99.90
25991;DHT22;13779;-33.886;151.198;2023-02-16T07:45:02;24.70;99.90
25991;DHT22;13779;-33.886;151.198;2023-02-16T07:47:33;24.70;99.90
25991;DHT22;13779;-33.886;151.198;2023-02-16T07:50:07;24.60;99.90
25991;DHT22;13779;-33.886;151.198;2023-02-16T07:52:38;24.60;99.90
25991;DHT22;13779;-33.886;151.198;2023-02-16T07:55:12;24.50;99.90
25991;DHT22;13779;-33.886;151.198;2023-02-16T07:57:43;24.50;99.90
25991;DHT22;13779;-33.886;151.198;2023-02-16T08:00:14;24.50;99.90
25991;DHT22;13779;-33.886;151.198;2023-02-16T08:02:44;24.50;99.90
25991;DHT22;13779;-33.886;151.198;2023-02-16T08:05:15;24.50;99.90
25991;DHT22;13779;-33.886;151.198;2023-02-16T08:07:50;24.50;99.90
25991;DHT22;13779;-33.886;151.198;2023-02-16T08:10:20;24.40;99.90
25991;DHT22;13779;-33.886;151.198;2023-02-16T08:12:54;24.50;99.90
25991;DHT22;13779;-33.886;151.198;2023-02-16T08:15:25;24.40;99.90
25991;DHT22;13779;-33.886;151.198;2023-02-16T08:17:56;24.40;99.90
25991;DHT22;13779;-33.886;151.198;2023-02-16T08:20:27;24.30;99.90
25991;DHT22;13779;-33.886;151.198;2023-02-16T08:23:18;24.20;99.90
25991;DHT22;13779;-33.886;151.198;2023-02-16T08:25:49;24.20;99.90
25991;DHT22;13779;-33.886;151.198;2023-02-16T08:28:19;24.20;99.90
25991;DHT22;13779;-33.886;151.198;2023-02-16T08:30:50;24.20;99.90
25991;DHT22;13779;-33.886;151.198;2023-02-16T08:33:25;24.20;99.90
25991;DHT22;13779;-33.886;151.198;2023-02-16T08:35:58;24.10;99.90
25991;DHT22;13779;-33.886;151.198;2023-02-16T08:38:29;24.10;99.90
25991;DHT22;13779;-33.886;151.198;2023-02-16T08:41:00;24.10;99.90
25991;DHT22;13779;-33.886;151.198;2023-02-16T08:43:32;24.10;99.90
25991;DHT22;13779;-33.886;151.198;2023-02-16T08:46:02;24.10;99.90
25991;DHT22;13779;-33.886;151.198;2023-02-16T08:48:36;24.10;99.90
25991;DHT22;13779;-33.886;151.198;2023-02-16T08:51:16;24.00;99.90
25991;DHT22;13779;-33.886;151.198;2023-02-16T08:53:46;24.00;99.90
25991;DHT22;13779;-33.886;151.198;2023-02-16T08:56:17;24.00;99.90
25991;DHT22;13779;-33.886;151.198;2023-02-16T08:58:48;24.00;99.90
25991;DHT22;13779;-33.886;151.198;2023-02-16T09:01:18;24.00;99.90
25991;DHT22;13779;-33.886;151.198;2023-02-16T09:03:49;24.00;99.90
25991;DHT22;13779;-33.886;151.198;2023-02-16T09:06:21;24.00;99.90
25991;DHT22;13779;-33.886;151.198;2023-02-16T09:08:54;24.00;99.90
25991;DHT22;13779;-33.886;151.198;2023-02-16T09:11:24;24.00;99.90
25991;DHT22;13779;-33.886;151.198;2023-02-16T09:13:54;23.90;99.90
25991;DHT22;13779;-33.886;151.198;2023-02-16T09:16:26;23.90;99.90
25991;DHT22;13779;-33.886;151.198;2023-02-16T09:18:57;23.90;99.90
25991;DHT22;13779;-33.886;151.198;2023-02-16T09:21:30;23.80;99.90
25991;DHT22;13779;-33.886;151.198;2023-02-16T09:24:04;23.80;99.90
25991;DHT22;13779;-33.886;151.198;2023-02-16T09:26:36;23.80;99.90
25991;DHT22;13779;-33.886;151.198;2023-02-16T09:29:11;23.80;99.90
25991;DHT22;13779;-33.886;151.198;2023-02-16T09:31:42;23.80;99.90
25991;DHT22;13779;-33.886;151.198;2023-02-16T09:34:16;23.70;99.90
25991;DHT22;13779;-33.886;151.198;2023-02-16T09:36:47;23.70;99.90
25991;DHT22;13779;-33.886;151.198;2023-02-16T09:39:22;23.70;99.90
25991;DHT22;13779;-33.886;151.198;2023-02-16T09:42:15;23.70;99.90
25991;DHT22;13779;-33.886;151.198;2023-02-16T09:47:39;23.70;99.90
25991;DHT22;13779;-33.886;151.198;2023-02-16T09:50:28;23.70;99.90
25991;DHT22;13779;-33.886;151.198;2023-02-16T09:53:39;23.60;99.90
25991;DHT22;13779;-33.886;151.198;2023-02-16T09:56:39;23.60;99.90
25991;DHT22;13779;-33.886;151.198;2023-02-16T09:59:24;23.60;99.90
25991;DHT22;13779;-33.886;151.198;2023-02-16T10:05:15;23.60;99.90
25991;DHT22;13779;-33.886;151.198;2023-02-16T10:08:02;23.60;99.90
25991;DHT22;13779;-33.886;151.198;2023-02-16T10:11:13;23.60;99.90
25991;DHT22;13779;-33.886;151.198;2023-02-16T10:14:28;23.50;99.90
25991;DHT22;13779;-33.886;151.198;2023-02-16T10:19:52;23.50;99.90
25991;DHT22;13779;-33.886;151.198;2023-02-16T10:22:33;23.60;99.90
25991;DHT22;13779;-33.886;151.198;2023-02-16T10:25:17;23.60;99.90
25991;DHT22;13779;-33.886;151.198;2023-02-16T10:28:19;23.50;99.90
25991;DHT22;13779;-33.886;151.198;2023-02-16T10:31:01;23.50;99.90
25991;DHT22;13779;-33.886;151.198;2023-02-16T10:33:40;23.50;99.90
25991;DHT22;13779;-33.886;151.198;2023-02-16T10:39:59;23.50;99.90
25991;DHT22;13779;-33.886;151.198;2023-02-16T10:48:21;23.50;99.90
25991;DHT22;13779;-33.886;151.198;2023-02-16T10:51:02;23.50;99.90
25991;DHT22;13779;-33.886;151.198;2023-02-16T10:59:16;23.50;99.90
25991;DHT22;13779;-33.886;151.198;2023-02-16T11:01:52;23.50;99.90
25991;DHT22;13779;-33.886;151.198;2023-02-16T11:04:39;23.50;99.90
25991;DHT22;13779;-33.886;151.198;2023-02-16T11:07:15;23.50;99.90
25991;DHT22;13779;-33.886;151.198;2023-02-16T11:09:48;23.50;99.90
25991;DHT22;13779;-33.886;151.198;2023-02-16T11:12:35;23.50;99.90
25991;DHT22;13779;-33.886;151.198;2023-02-16T11:23:30;23.50;99.90
25991;DHT22;13779;-33.886;151.198;2023-02-16T11:28:44;23.50;99.90
25991;DHT22;13779;-33.886;151.198;2023-02-16T11:31:19;23.50;99.90
25991;DHT22;13779;-33.886;151.198;2023-02-16T11:34:03;23.40;99.90
25991;DHT22;13779;-33.886;151.198;2023-02-16T11:36:43;23.40;99.90
25991;DHT22;13779;-33.886;151.198;2023-02-16T11:41:56;23.30;99.90
25991;DHT22;13779;-33.886;151.198;2023-02-16T11:44:48;23.30;99.90
25991;DHT22;13779;-33.886;151.198;2023-02-16T11:47:57;23.30;99.90
25991;DHT22;13779;-33.886;151.198;2023-02-16T11:50:21;23.40;99.90
25991;DHT22;13779;-33.886;151.198;2023-02-16T11:55:46;23.40;99.90
25991;DHT22;13779;-33.886;151.198;2023-02-16T12:01:19;23.30;99.90
25991;DHT22;13779;-33.886;151.198;2023-02-16T12:07:07;23.30;99.90
25991;DHT22;13779;-33.886;151.198;2023-02-16T12:18:28;23.20;99.90
25991;DHT22;13779;-33.886;151.198;2023-02-16T12:21:19;23.30;99.90
25991;DHT22;13779;-33.886;151.198;2023-02-16T12:24:14;23.20;99.90
25991;DHT22;13779;-33.886;151.198;2023-02-16T12:26:53;23.30;99.90
25991;DHT22;13779;-33.886;151.198;2023-02-16T12:29:47;23.30;99.90
25991;DHT22;13779;-33.886;151.198;2023-02-16T12:46:17;23.30;99.90
25991;DHT22;13779;-33.886;151.198;2023-02-16T12:48:52;23.30;99.90
25991;DHT22;13779;-33.886;151.198;2023-02-16T12:51:36;23.20;99.90
25991;DHT22;13779;-33.886;151.198;2023-02-16T12:54:27;23.20;99.90
25991;DHT22;13779;-33.886;151.198;2023-02-16T12:57:38;23.20;99.90
25991;DHT22;13779;-33.886;151.198;2023-02-16T13:03:01;23.20;99.90
25991;DHT22;13779;-33.886;151.198;2023-02-16T13:05:39;23.20;99.90
25991;DHT22;13779;-33.886;151.198;2023-02-16T13:11:39;23.20;99.90
25991;DHT22;13779;-33.886;151.198;2023-02-16T13:14:27;23.10;99.90
25991;DHT22;13779;-33.886;151.198;2023-02-16T13:17:14;23.10;99.90
25991;DHT22;13779;-33.886;151.198;2023-02-16T13:19:51;23.20;99.90
25991;DHT22;13779;-33.886;151.198;2023-02-16T13:33:45;23.10;99.90
25991;DHT22;13779;-33.886;151.198;2023-02-16T13:36:33;23.10;99.90
25991;DHT22;13779;-33.886;151.198;2023-02-16T13:44:49;23.00;99.90
25991;DHT22;13779;-33.886;151.198;2023-02-16T13:47:31;23.00;99.90
25991;DHT22;13779;-33.886;151.198;2023-02-16T13:50:08;23.00;99.90
25991;DHT22;13779;-33.886;151.198;2023-02-16T13:52:40;23.10;99.90
25991;DHT22;13779;-33.886;151.198;2023-02-16T13:55:31;23.00;99.90
25991;DHT22;13779;-33.886;151.198;2023-02-16T14:00:39;23.10;99.90
25991;DHT22;13779;-33.886;151.198;2023-02-16T14:05:51;23.00;99.90
25991;DHT22;13779;-33.886;151.198;2023-02-16T14:08:29;23.00;99.90
25991;DHT22;13779;-33.886;151.198;2023-02-16T14:11:03;22.90;99.90
25991;DHT22;13779;-33.886;151.198;2023-02-16T14:16:28;23.00;99.90
25991;DHT22;13779;-33.886;151.198;2023-02-16T14:19:23;23.00;99.90
25991;DHT22;13779;-33.886;151.198;2023-02-16T14:21:54;23.00;99.90
25991;DHT22;13779;-33.886;151.198;2023-02-16T14:27:06;22.90;99.90
25991;DHT22;13779;-33.886;151.198;2023-02-16T14:30:00;22.80;99.90
25991;DHT22;13779;-33.886;151.198;2023-02-16T14:32:32;22.90;99.90
25991;DHT22;13779;-33.886;151.198;2023-02-16T14:35:24;22.90;99.90
25991;DHT22;13779;-33.886;151.198;2023-02-16T14:38:05;22.90;99.90
25991;DHT22;13779;-33.886;151.198;2023-02-16T14:40:55;22.80;99.90
25991;DHT22;13779;-33.886;151.198;2023-02-16T14:43:46;22.80;99.90
25991;DHT22;13779;-33.886;151.198;2023-02-16T14:46:41;22.80;99.90
25991;DHT22;13779;-33.886;151.198;2023-02-16T15:00:53;22.80;99.90
25991;DHT22;13779;-33.886;151.198;2023-02-16T15:03:37;22.80;99.90
25991;DHT22;13779;-33.886;151.198;2023-02-16T15:09:02;22.80;99.90
25991;DHT22;13779;-33.886;151.198;2023-02-16T15:11:36;22.80;99.90
25991;DHT22;13779;-33.886;151.198;2023-02-16T15:14:32;22.80;99.90
25991;DHT22;13779;-33.886;151.198;2023-02-16T15:17:07;22.80;99.90
25991;DHT22;13779;-33.886;151.198;2023-02-16T15:19:38;22.80;99.90
25991;DHT22;13779;-33.886;151.198;2023-02-16T15:22:18;22.80;99.90
25991;DHT22;13779;-33.886;151.198;2023-02-16T15:25:02;22.80;99.90
25991;DHT22;13779;-33.886;151.198;2023-02-16T15:27:33;22.80;99.90
25991;DHT22;13779;-33.886;151.198;2023-02-16T15:30:30;22.80;99.90
25991;DHT22;13779;-33.886;151.198;2023-02-16T15:33:04;22.80;99.90
25991;DHT22;13779;-33.886;151.198;2023-02-16T15:35:41;22.80;99.90
25991;DHT22;13779;-33.886;151.198;2023-02-16T15:40:42;22.70;99.90
25991;DHT22;13779;-33.886;151.198;2023-02-16T15:43:36;22.70;99.90
25991;DHT22;13779;-33.886;151.198;2023-02-16T15:46:29;22.80;99.90
25991;DHT22;13779;-33.886;151.198;2023-02-16T15:49:21;22.70;99.90
25991;DHT22;13779;-33.886;151.198;2023-02-16T15:51:56;22.80;99.90
25991;DHT22;13779;-33.886;151.198;2023-02-16T15:54:33;22.70;99.90
25991;DHT22;13779;-33.886;151.198;2023-02-16T15:57:13;22.80;99.90
25991;DHT22;13779;-33.886;151.198;2023-02-16T15:59:53;22.70;99.90
25991;DHT22;13779;-33.886;151.198;2023-02-16T16:02:46;22.60;99.90
25991;DHT22;13779;-33.886;151.198;2023-02-16T16:05:32;22.70;99.90
25991;DHT22;13779;-33.886;151.198;2023-02-16T16:08:13;22.60;99.90
25991;DHT22;13779;-33.886;151.198;2023-02-16T16:10:47;22.60;99.90
25991;DHT22;13779;-33.886;151.198;2023-02-16T16:13:22;22.70;99.90
25991;DHT22;13779;-33.886;151.198;2023-02-16T16:15:55;22.70;99.90
25991;DHT22;13779;-33.886;151.198;2023-02-16T16:21:27;22.70;99.90
25991;DHT22;13779;-33.886;151.198;2023-02-16T16:24:08;22.70;99.90
25991;DHT22;13779;-33.886;151.198;2023-02-16T16:27:07;22.70;99.90
25991;DHT22;13779;-33.886;151.198;2023-02-16T16:29:46;22.60;99.90
25991;DHT22;13779;-33.886;151.198;2023-02-16T16:32:22;22.70;99.90
25991;DHT22;13779;-33.886;151.198;2023-02-16T16:34:59;22.70;99.90
25991;DHT22;13779;-33.886;151.198;2023-02-16T16:37:33;22.60;99.90
25991;DHT22;13779;-33.886;151.198;2023-02-16T16:48:29;22.60;99.90
25991;DHT22;13779;-33.886;151.198;2023-02-16T16:51:20;22.60;99.90
25991;DHT22;13779;-33.886;151.198;2023-02-16T16:54:11;22.60;99.90
25991;DHT22;13779;-33.886;151.198;2023-02-16T16:57:03;22.60;99.90
25991;DHT22;13779;-33.886;151.198;2023-02-16T16:59:41;22.70;99.90
25991;DHT22;13779;-33.886;151.198;2023-02-16T17:02:11;22.60;99.90
25991;DHT22;13779;-33.886;151.198;2023-02-16T17:04:44;22.60;99.90
25991;DHT22;13779;-33.886;151.198;2023-02-16T17:07:15;22.60;99.90
25991;DHT22;13779;-33.886;151.198;2023-02-16T17:09:45;22.60;99.90
25991;DHT22;13779;-33.886;151.198;2023-02-16T17:12:16;22.60;99.90
25991;DHT22;13779;-33.886;151.198;2023-02-16T17:14:47;22.60;99.90
25991;DHT22;13779;-33.886;151.198;2023-02-16T17:17:18;22.60;99.90
25991;DHT22;13779;-33.886;151.198;2023-02-16T17:19:49;22.60;99.90
25991;DHT22;13779;-33.886;151.198;2023-02-16T17:22:20;22.60;99.90
25991;DHT22;13779;-33.886;151.198;2023-02-16T17:24:50;22.60;99.90
25991;DHT22;13779;-33.886;151.198;2023-02-16T17:27:20;22.60;99.90
25991;DHT22;13779;-33.886;151.198;2023-02-16T17:29:51;22.60;99.90
25991;DHT22;13779;-33.886;151.198;2023-02-16T17:32:22;22.60;99.90
25991;DHT22;13779;-33.886;151.198;2023-02-16T17:34:53;22.50;99.90
25991;DHT22;13779;-33.886;151.198;2023-02-16T17:37:34;22.50;99.90
25991;DHT22;13779;-33.886;151.198;2023-02-16T17:40:07;22.50;99.90
25991;DHT22;13779;-33.886;151.198;2023-02-16T17:42:40;22.50;99.90
25991;DHT22;13779;-33.886;151.198;2023-02-16T17:45:11;22.40;99.90
25991;DHT22;13779;-33.886;151.198;2023-02-16T17:47:45;22.40;99.90
25991;DHT22;13779;-33.886;151.198;2023-02-16T17:50:19;22.40;99.90
25991;DHT22;13779;-33.886;151.198;2023-02-16T17:52:50;22.50;99.90
25991;DHT22;13779;-33.886;151.198;2023-02-16T17:55:25;22.50;99.90
25991;DHT22;13779;-33.886;151.198;2023-02-16T17:57:56;22.40;99.90
25991;DHT22;13779;-33.886;151.198;2023-02-16T18:00:26;22.40;99.90
25991;DHT22;13779;-33.886;151.198;2023-02-16T18:03:01;22.50;99.90
25991;DHT22;13779;-33.886;151.198;2023-02-16T18:05:32;22.40;99.90
25991;DHT22;13779;-33.886;151.198;2023-02-16T18:08:03;22.40;99.90
25991;DHT22;13779;-33.886;151.198;2023-02-16T18:10:35;22.40;99.90
25991;DHT22;13779;-33.886;151.198;2023-02-16T18:13:06;22.40;99.90
25991;DHT22;13779;-33.886;151.198;2023-02-16T18:15:41;22.40;99.90
25991;DHT22;13779;-33.886;151.198;2023-02-16T18:18:15;22.50;99.90
25991;DHT22;13779;-33.886;151.198;2023-02-16T18:20:46;22.50;99.90
25991;DHT22;13779;-33.886;151.198;2023-02-16T18:23:20;22.40;99.90
25991;DHT22;13779;-33.886;151.198;2023-02-16T18:25:50;22.30;99.90
25991;DHT22;13779;-33.886;151.198;2023-02-16T18:28:27;22.30;99.90
25991;DHT22;13779;-33.886;151.198;2023-02-16T18:31:00;22.30;99.90
25991;DHT22;13779;-33.886;151.198;2023-02-16T18:33:30;22.30;99.90
25991;DHT22;13779;-33.886;151.198;2023-02-16T18:36:03;22.20;99.90
25991;DHT22;13779;-33.886;151.198;2023-02-16T18:38:33;22.20;99.90
25991;DHT22;13779;-33.886;151.198;2023-02-16T18:41:03;22.10;99.90
25991;DHT22;13779;-33.886;151.198;2023-02-16T18:43:34;22.20;99.90